Time;durP1;ratioP1;P1;durP2;ratioP2;P2;SDS_P1;SDS_P2;PMS_P1;PMS_P2;Temp;Humidity;BMP_temperature;BMP_pressure;BME280_temperature;BME280_humidity;BME280_pressure;Samples;Min_cycle;Max_cycle;Signal;HPM_P1;HPM_P2
2022/05/18 00:01:44;;;;;;;4.88;4.07;;;;;;;22.63;54.93;99157.03;5075325;28;20952;-57
2022/05/18 00:04:11;;;;;;;7.40;4.23;;;;;;;22.59;55.30;99163.28;5076363;28;20191;-57
2022/05/18 00:06:38;;;;;;;4.00;3.70;;;;;;;22.64;55.16;99163.97;5072875;28;20219;-57
2022/05/18 00:09:05;;;;;;;4.57;4.17;;;;;;;22.63;55.20;99152.69;5072919;28;20206;-57
2022/05/18 00:11:32;;;;;;;5.43;4.50;;;;;;;22.60;55.33;99152.75;5073181;28;20191;-57
2022/05/18 00:14:01;;;;;;;5.38;4.40;;;;;;;22.55;55.46;99151.22;5072470;28;20445;-57
2022/05/18 00:16:28;;;;;;;4.77;4.07;;;;;;;22.49;55.39;99147.06;5072762;28;20191;-57
2022/05/18 00:18:55;;;;;;;4.93;4.53;;;;;;;22.47;55.72;99132.31;5072461;28;20788;-57
2022/05/18 00:21:23;;;;;;;4.50;4.17;;;;;;;22.46;55.47;99128.84;5072286;28;20523;-57
2022/05/18 00:23:50;;;;;;;5.70;3.87;;;;;;;22.38;55.79;99123.03;5072197;28;20187;-57
2022/05/18 00:26:16;;;;;;;4.53;4.13;;;;;;;22.42;55.68;99127.25;5072411;28;20187;-57
2022/05/18 00:28:43;;;;;;;7.97;4.43;;;;;;;22.37;55.88;99117.84;5072324;28;20192;-56
2022/05/18 00:31:14;;;;;;;7.17;4.20;;;;;;;22.32;55.80;99118.91;5072465;28;20187;-57
2022/05/18 00:33:41;;;;;;;7.47;4.17;;;;;;;22.33;55.94;99114.53;5072106;28;20577;-57
2022/05/18 00:36:08;;;;;;;4.97;4.47;;;;;;;22.26;56.24;99111.25;5072045;28;20195;-57
2022/05/18 00:38:35;;;;;;;4.70;4.30;;;;;;;22.24;56.52;99117.47;5072234;28;20234;-57
2022/05/18 00:41:02;;;;;;;4.53;4.23;;;;;;;22.29;56.39;99111.16;5072164;28;20223;-57
2022/05/18 00:43:41;;;;;;;5.35;4.20;;;;;;;22.12;56.22;99082.13;5071360;28;20946;-57
2022/05/18 00:46:13;;;;;;;5.77;4.13;;;;;;;22.26;56.66;99110.41;5071933;28;20187;-57
2022/05/18 00:48:41;;;;;;;4.63;4.33;;;;;;;22.32;56.07;99104.94;5071928;28;20199;-57
2022/05/18 00:51:13;;;;;;;4.87;4.33;;;;;;;22.32;56.20;99092.72;5071834;28;20674;-57
2022/05/18 00:53:44;;;;;;;5.07;4.60;;;;;;;22.31;56.35;99095.38;5072024;28;20204;-57
2022/05/18 00:56:15;;;;;;;5.35;4.40;;;;;;;22.29;56.09;99097.22;5071719;28;20391;-56
2022/05/18 00:58:48;;;;;;;5.37;4.43;;;;;;;22.28;56.33;99098.09;5071711;28;20199;-56
2022/05/18 01:01:17;;;;;;;4.30;3.77;;;;;;;22.26;56.61;99105.16;5071692;28;20795;-56
2022/05/18 01:03:48;;;;;;;5.03;4.20;;;;;;;22.27;56.78;99101.66;5071463;28;20445;-57
2022/05/18 01:06:21;;;;;;;4.97;4.47;;;;;;;22.27;56.44;99104.28;5071559;28;20187;-57
2022/05/18 01:08:53;;;;;;;4.63;4.23;;;;;;;22.27;56.80;99105.13;5071363;28;20192;-57
2022/05/18 01:11:20;;;;;;;4.63;4.33;;;;;;;22.22;56.98;99106.22;5071456;28;20183;-57
2022/05/18 01:13:48;;;;;;;5.37;4.07;;;;;;;22.20;57.12;99108.00;5071398;28;20191;-57
2022/05/18 01:16:16;;;;;;;5.27;4.83;;;;;;;22.22;57.20;99111.44;5071691;28;20207;-56
2022/05/18 01:18:43;;;;;;;4.93;4.53;;;;;;;22.13;57.78;99103.91;5071631;28;20198;-57
2022/05/18 01:21:10;;;;;;;5.00;4.57;;;;;;;22.11;57.89;99103.97;5071569;28;20262;-57
2022/05/18 01:23:49;;;;;;;5.23;4.73;;;;;;;22.08;58.20;99096.25;5071356;28;20620;-57
2022/05/18 01:26:20;;;;;;;4.80;4.40;;;;;;;22.08;58.38;99096.25;5071083;28;20693;-57
2022/05/18 01:28:52;;;;;;;5.97;4.70;;;;;;;22.11;58.33;99092.66;5071121;28;20266;-57
2022/05/18 01:31:20;;;;;;;4.90;4.50;;;;;;;22.11;58.59;99093.50;5071415;28;20192;-56
2022/05/18 01:33:47;;;;;;;5.30;4.80;;;;;;;22.04;59.00;99093.78;5071294;28;20219;-57
2022/05/18 01:36:14;;;;;;;5.23;4.73;;;;;;;22.08;58.81;99085.78;5071228;28;20261;-57
2022/05/18 01:38:41;;;;;;;5.13;4.60;;;;;;;21.79;58.83;99044.09;5070809;28;20453;-56
2022/05/18 01:41:14;;;;;;;5.47;4.70;;;;;;;21.97;59.09;99081.84;5070961;28;20226;-56
2022/05/18 01:43:46;;;;;;;4.87;4.50;;;;;;;21.97;59.25;99079.22;5070821;28;20192;-56
2022/05/18 01:46:16;;;;;;;5.50;4.90;;;;;;;21.98;59.14;99080.91;5070543;28;20509;-56
2022/05/18 01:48:46;;;;;;;5.80;5.13;;;;;;;21.93;59.22;99069.78;5070808;28;20192;-57
2022/05/18 01:51:18;;;;;;;5.80;4.27;;;;;;;21.96;59.57;99075.75;5070655;28;20187;-57
2022/05/18 01:53:45;;;;;;;6.37;4.67;;;;;;;21.91;59.56;99071.59;5070684;28;20196;-57
2022/05/18 01:56:12;;;;;;;4.93;4.47;;;;;;;21.88;59.80;99063.84;5070739;28;20192;-57
2022/05/18 01:58:39;;;;;;;4.17;3.87;;;;;;;21.77;60.14;99062.47;5070655;28;20579;-56
2022/05/18 02:01:06;;;;;;;4.73;4.27;;;;;;;21.72;60.10;99066.16;5070834;28;20420;-57
2022/05/18 02:03:34;;;;;;;4.97;4.57;;;;;;;21.68;60.15;99061.91;5070353;28;20196;-57
2022/05/18 02:06:01;;;;;;;4.60;4.20;;;;;;;21.56;60.74;99064.97;5070565;28;20203;-58
2022/05/18 02:08:28;;;;;;;4.67;4.27;;;;;;;21.54;60.86;99049.34;5070667;28;20218;-57
2022/05/18 02:10:54;;;;;;;5.27;4.60;;;;;;;21.48;61.30;99046.09;5070290;28;20191;-57
2022/05/18 02:13:22;;;;;;;4.57;4.23;;;;;;;21.44;61.75;99052.31;5070402;28;20270;-57
2022/05/18 02:15:49;;;;;;;6.53;4.70;;;;;;;21.41;61.76;99041.97;5070251;28;20188;-56
2022/05/18 02:18:15;;;;;;;4.80;4.40;;;;;;;;;;5070075;28;20218;-57
2022/05/18 02:20:44;;;;;;;5.63;4.90;;;;;;;21.35;62.16;99045.66;5070325;28;20219;-57
2022/05/18 02:23:11;;;;;;;5.43;4.93;;;;;;;21.31;62.59;99056.28;5070252;28;20286;-57
2022/05/18 02:25:38;;;;;;;5.50;5.00;;;;;;;21.26;62.93;99051.19;5069965;28;20195;-57
2022/05/18 02:28:06;;;;;;;6.93;4.40;;;;;;;21.24;63.09;99044.31;5070027;28;20221;-57
2022/05/18 02:30:33;;;;;;;5.43;4.93;;;;;;;21.27;63.13;99052.91;5068305;28;20434;-58
2022/05/18 02:33:00;;;;;;;5.23;4.73;;;;;;;21.29;62.77;99045.03;5070243;28;20179;-58
2022/05/18 02:35:27;;;;;;;5.63;5.10;;;;;;;21.25;62.78;99044.28;5070104;28;20613;-58
2022/05/18 02:37:55;;;;;;;8.17;5.03;;;;;;;21.20;63.04;99043.56;5069952;28;20211;-58
2022/05/18 02:40:23;;;;;;;6.50;5.00;;;;;;;21.13;63.19;99055.13;5069951;28;20227;-57
2022/05/18 02:42:49;;;;;;;7.88;4.90;;;;;;;21.08;63.29;99059.66;5069513;28;20434;-58
2022/05/18 02:45:16;;;;;;;5.33;4.83;;;;;;;21.05;63.44;99063.19;5069766;28;20192;-58
2022/05/18 02:47:43;;;;;;;5.37;4.87;;;;;;;21.00;63.56;99066.84;5070021;28;20192;-58
2022/05/18 02:50:11;;;;;;;6.60;5.80;;;;;;;21.01;63.64;99064.19;5069601;28;20514;-58
2022/05/18 02:52:38;;;;;;;7.00;5.20;;;;;;;20.91;63.98;99072.38;5069837;28;20524;-58
2022/05/18 02:57:53;;;;;;;8.37;5.77;;;;;;;20.91;64.57;99065.38;5069835;28;20285;-60
2022/05/18 03:00:20;;;;;;;7.00;5.40;;;;;;;20.86;64.31;99082.97;5069615;28;20195;-58
2022/05/18 03:02:47;;;;;;;5.33;4.93;;;;;;;20.85;64.50;99076.03;5069670;28;20191;-57
2022/05/18 03:05:15;;;;;;;5.77;5.27;;;;;;;20.84;64.39;99081.31;5069838;28;20196;-57
2022/05/18 03:07:43;;;;;;;5.97;5.47;;;;;;;20.80;64.44;99075.31;5069719;28;20586;-58
2022/05/18 03:10:15;;;;;;;5.90;5.30;;;;;;;20.43;64.47;99035.63;5069494;28;20191;-57
2022/05/18 03:12:42;;;;;;;5.53;5.03;;;;;;;20.75;64.55;99090.28;5068925;28;20442;-57
2022/05/18 03:15:10;;;;;;;6.43;5.77;;;;;;;20.82;64.24;99085.75;5069836;28;20282;-57
2022/05/18 03:17:38;;;;;;;6.10;5.13;;;;;;;20.82;64.32;99102.22;5069447;28;20191;-57
2022/05/18 03:20:06;;;;;;;7.20;5.20;;;;;;;20.76;64.55;99109.44;5069583;28;20187;-57
2022/05/18 03:25:19;;;;;;;6.07;5.57;;;;;;;20.67;65.26;99100.13;5069278;28;20832;-57
2022/05/18 03:27:46;;;;;;;6.13;5.63;;;;;;;20.68;64.96;99103.59;5069478;28;20321;-57
2022/05/18 03:30:14;;;;;;;5.07;4.57;;;;;;;20.51;65.31;99086.69;5069399;28;20674;-57
2022/05/18 03:32:41;;;;;;;5.57;5.13;;;;;;;20.70;65.22;99107.00;5069160;28;20437;-57
2022/05/18 03:35:09;;;;;;;12.40;5.20;;;;;;;20.76;65.11;99096.38;5069197;28;20195;-57
2022/05/18 03:37:36;;;;;;;5.83;5.27;;;;;;;20.65;65.13;99114.97;5069204;28;20616;-57
2022/05/18 03:40:03;;;;;;;5.67;5.27;;;;;;;20.59;65.41;99123.84;5069291;28;20709;-57
2022/05/18 03:42:31;;;;;;;7.97;5.70;;;;;;;20.60;65.30;99117.72;5072420;28;20220;-57
2022/05/18 03:44:58;;;;;;;6.00;5.50;;;;;;;20.64;65.16;99107.19;5072951;28;20200;-57
2022/05/18 03:47:25;;;;;;;6.17;5.63;;;;;;;20.63;64.99;99108.09;5072876;28;20191;-57
2022/05/18 03:49:52;;;;;;;6.17;5.70;;;;;;;20.56;65.30;99115.25;5072969;28;20198;-57
2022/05/18 03:52:18;;;;;;;7.27;5.30;;;;;;;20.52;65.40;99119.69;5072926;28;20192;-57
2022/05/18 03:54:45;;;;;;;5.70;5.30;;;;;;;20.47;65.47;99110.28;5073046;28;20199;-57
2022/05/18 03:57:12;;;;;;;6.13;5.47;;;;;;;20.51;65.57;99117.16;5072824;28;20688;-57
2022/05/18 03:59:40;;;;;;;6.87;6.13;;;;;;;20.49;65.29;99125.00;5072577;28;20199;-57
2022/05/18 04:02:08;;;;;;;6.80;6.10;;;;;;;20.45;65.99;99127.75;5072528;28;20219;-57
2022/05/18 04:04:34;;;;;;;7.03;5.43;;;;;;;20.49;65.42;99129.41;5072527;28;20698;-57
2022/05/18 04:07:01;;;;;;;6.53;5.93;;;;;;;20.65;65.29;99130.66;5072620;28;20196;-57
2022/05/18 04:09:28;;;;;;;6.95;5.97;;;;;;;20.70;64.79;99131.34;5071584;28;20520;-57
2022/05/18 04:11:55;;;;;;;6.20;5.40;;;;;;;20.68;64.78;99138.38;5072455;28;20712;-57
2022/05/18 04:14:22;;;;;;;5.70;5.30;;;;;;;20.76;64.84;99125.97;5072475;28;20202;-57
2022/05/18 04:16:50;;;;;;;7.00;5.57;;;;;;;20.80;63.84;99130.16;5072207;28;20203;-57
2022/05/18 04:19:17;;;;;;;6.97;5.60;;;;;;;20.83;64.06;99131.81;5072454;28;20203;-57
2022/05/18 04:21:44;;;;;;;7.50;5.20;;;;;;;20.89;63.54;99134.25;5072300;28;20598;-57
2022/05/18 04:24:11;;;;;;;5.57;5.07;;;;;;;20.96;63.38;99143.59;5072491;28;20202;-57
2022/05/18 04:26:39;;;;;;;6.13;5.50;;;;;;;21.04;63.00;99136.41;5072466;28;20199;-57
2022/05/18 04:29:06;;;;;;;5.85;5.38;;;;;;;21.11;63.09;99138.78;5072346;28;20442;-57
2022/05/18 04:31:33;;;;;;;5.57;5.17;;;;;;;21.01;62.87;99133.88;5072228;28;20214;-58
2022/05/18 04:34:01;;;;;;;6.93;4.90;;;;;;;20.89;63.25;99147.31;5072255;28;20199;-57
2022/05/18 04:36:28;;;;;;;6.07;5.20;;;;;;;20.93;63.71;99143.72;5072149;28;20441;-57
2022/05/18 04:38:55;;;;;;;5.30;4.80;;;;;;;20.95;63.40;99147.13;5071947;28;20263;-56
2022/05/18 04:41:22;;;;;;;6.33;5.00;;;;;;;21.03;63.08;99145.13;5071837;28;20230;-57
2022/05/18 04:43:50;;;;;;;6.60;5.37;;;;;;;21.06;62.97;99140.66;5071930;28;20206;-57
2022/05/18 04:46:17;;;;;;;6.03;5.43;;;;;;;21.15;62.75;99145.59;5072004;28;20226;-56
2022/05/18 04:48:43;;;;;;;5.63;5.13;;;;;;;21.16;62.50;99149.94;5071813;28;20203;-56
2022/05/18 04:51:12;;;;;;;5.60;5.20;;;;;;;21.25;62.31;99154.03;5071794;28;20544;-56
2022/05/18 04:53:38;;;;;;;5.70;5.20;;;;;;;21.34;61.75;99153.72;5071380;28;20206;-56
2022/05/18 04:56:05;;;;;;;5.90;5.37;;;;;;;;;;5071837;28;20191;-57
2022/05/18 04:58:33;;;;;;;8.13;5.50;;;;;;;21.39;61.99;99164.03;5070967;28;20441;-57
2022/05/18 05:01:04;;;;;;;6.23;5.60;;;;;;;21.45;61.49;99156.81;5071573;28;20640;-57
2022/05/18 05:03:31;;;;;;;5.70;4.97;;;;;;;21.49;61.71;99173.28;5071667;28;20203;-56
2022/05/18 05:05:58;;;;;;;6.60;5.90;;;;;;;21.54;61.15;99192.28;5071210;28;20199;-57
2022/05/18 05:08:26;;;;;;;6.13;5.63;;;;;;;21.49;61.31;99179.34;5071386;28;20639;-57
2022/05/18 05:10:53;;;;;;;7.63;5.20;;;;;;;21.56;61.21;99180.03;5071372;28;20191;-58
2022/05/18 05:13:19;;;;;;;7.20;5.47;;;;;;;21.62;61.26;99192.88;5071033;28;20206;-57
2022/05/18 05:15:46;;;;;;;6.90;6.03;;;;;;;21.64;60.91;99183.22;5071325;28;20196;-58
2022/05/18 05:18:13;;;;;;;5.83;5.37;;;;;;;21.64;60.86;99191.94;5071024;28;20566;-56
2022/05/18 05:20:40;;;;;;;6.22;5.63;;;;;;;21.68;60.57;99182.22;5070384;28;20508;-57
2022/05/18 05:23:07;;;;;;;5.97;5.37;;;;;;;21.90;60.30;99196.31;5071074;28;20246;-57
2022/05/18 05:25:35;;;;;;;5.93;5.43;;;;;;;21.88;59.97;99190.28;5071022;28;20202;-57
2022/05/18 05:28:02;;;;;;;6.23;5.60;;;;;;;22.04;59.90;99194.06;5070750;28;20222;-57
2022/05/18 05:30:29;;;;;;;11.30;5.40;;;;;;;22.20;59.27;99189.13;5070731;28;20202;-58
2022/05/18 05:32:56;;;;;;;6.40;5.77;;;;;;;22.16;59.39;99192.78;5070818;28;20187;-57
2022/05/18 05:35:23;;;;;;;8.00;5.67;;;;;;;22.32;58.90;99209.66;5070873;28;20195;-57
2022/05/18 05:37:49;;;;;;;6.20;5.60;;;;;;;22.43;58.88;99209.25;5070577;28;20689;-57
2022/05/18 05:40:17;;;;;;;6.83;6.23;;;;;;;22.61;58.69;99203.34;5070416;28;20235;-58
2022/05/18 05:42:45;;;;;;;6.50;5.53;;;;;;;22.77;57.47;99223.72;5070671;28;20243;-58
2022/05/18 05:45:13;;;;;;;8.17;5.90;;;;;;;22.85;57.42;99205.09;5070728;28;20195;-57
2022/05/18 05:47:40;;;;;;;5.87;5.30;;;;;;;22.91;56.80;99204.84;5070455;28;20191;-57
2022/05/18 05:50:09;;;;;;;6.23;5.53;;;;;;;23.12;57.11;99203.19;5070377;28;20582;-57
2022/05/18 05:52:36;;;;;;;9.63;5.20;;;;;;;23.44;56.01;99215.88;5070100;28;20188;-57
2022/05/18 05:55:02;;;;;;;6.82;5.15;;;;;;;23.48;55.72;99207.00;5070029;28;20817;-58
2022/05/18 05:57:29;;;;;;;8.97;6.20;;;;;;;23.57;54.99;99218.88;5070196;28;20222;-57
2022/05/18 05:59:58;;;;;;;8.53;5.90;;;;;;;23.84;54.77;99223.00;5070025;28;20191;-57
2022/05/18 06:02:25;;;;;;;5.55;5.05;;;;;;;23.89;53.86;99221.88;5070121;28;20365;-57
2022/05/18 06:04:51;;;;;;;5.87;5.33;;;;;;;23.83;54.25;99224.75;5069466;28;20219;-57
2022/05/18 06:07:18;;;;;;;6.43;5.80;;;;;;;23.76;54.60;99217.22;5070046;28;20191;-57
2022/05/18 06:09:45;;;;;;;9.73;6.00;;;;;;;23.85;54.16;99222.91;5069775;28;20666;-57
2022/05/18 06:12:12;;;;;;;6.63;5.17;;;;;;;23.80;54.11;99210.91;5069901;28;20192;-57
2022/05/18 06:14:39;;;;;;;6.17;5.60;;;;;;;23.89;54.04;99221.88;5070368;28;20199;-57
2022/05/18 06:17:08;;;;;;;6.63;5.70;;;;;;;23.79;53.43;99215.28;5069943;28;20202;-58
2022/05/18 06:19:35;;;;;;;7.37;6.13;;;;;;;23.40;54.32;99167.13;5069802;28;20195;-58
2022/05/18 06:22:03;;;;;;;6.27;5.67;;;;;;;23.84;53.81;99212.50;5070263;28;20234;-57
2022/05/18 06:24:29;;;;;;;7.53;6.32;;;;;;;24.12;53.39;99220.91;5069603;28;20441;-57
2022/05/18 06:26:58;;;;;;;6.37;5.77;;;;;;;24.20;52.72;99216.19;5069542;28;20666;-57
2022/05/18 06:29:25;;;;;;;7.47;5.93;;;;;;;24.21;52.80;99217.03;5069768;28;20198;-58
2022/05/18 06:31:52;;;;;;;8.93;5.90;;;;;;;24.19;51.47;99224.13;5069432;28;20218;-57
2022/05/18 06:34:22;;;;;;;8.77;5.90;;;;;;;23.99;51.72;99241.56;5069352;28;20646;-57
2022/05/18 06:36:49;;;;;;;5.77;5.07;;;;;;;23.93;52.35;99240.94;5069417;28;20199;-57
2022/05/18 06:39:18;;;;;;;6.88;5.70;;;;;;;23.97;52.23;99251.28;5068536;28;20445;-58
2022/05/18 06:41:46;;;;;;;6.47;5.80;;;;;;;24.05;51.63;99238.69;5069456;28;20230;-58
2022/05/18 06:44:13;;;;;;;6.80;5.17;;;;;;;24.00;52.01;99227.53;5069411;28;20199;-56
2022/05/18 06:46:41;;;;;;;6.17;5.10;;;;;;;24.07;52.18;99249.97;5069501;28;20752;-57
2022/05/18 06:49:10;;;;;;;6.63;5.73;;;;;;;24.12;51.60;99231.41;5069234;28;20200;-57
2022/05/18 06:51:40;;;;;;;6.63;5.90;;;;;;;24.28;51.82;99234.25;5069310;28;20543;-57
2022/05/18 06:54:07;;;;;;;9.07;6.10;;;;;;;24.52;51.41;99236.66;5069337;28;20245;-57
2022/05/18 06:56:35;;;;;;;6.83;6.20;;;;;;;24.45;51.12;99234.34;5069144;28;20202;-57
2022/05/18 06:59:04;;;;;;;9.57;5.80;;;;;;;24.41;51.75;99231.03;5069107;28;20191;-57
2022/05/18 07:01:31;;;;;;;6.97;6.35;;;;;;;24.42;51.67;99245.00;5067915;28;20438;-58
2022/05/18 07:03:59;;;;;;;7.93;6.17;;;;;;;24.54;51.43;99239.19;5069124;28;20188;-58
2022/05/18 07:06:28;;;;;;;6.53;5.37;;;;;;;24.44;51.76;99245.78;5069021;28;20191;-57
2022/05/18 07:08:57;;;;;;;6.20;5.60;;;;;;;24.41;52.33;99253.81;5068849;28;20187;-57
2022/05/18 07:11:24;;;;;;;6.83;5.87;;;;;;;24.24;51.91;99251.91;5068927;28;20547;-58
2022/05/18 07:13:53;;;;;;;9.63;6.40;;;;;;;24.20;52.52;99262.63;5069196;28;20196;-57
2022/05/18 07:16:21;;;;;;;10.70;5.97;;;;;;;23.96;52.25;99262.69;5072744;28;20196;-57
2022/05/18 07:18:48;;;;;;;7.13;6.43;;;;;;;23.87;53.19;99264.84;5073311;28;20187;-57
2022/05/18 07:21:16;;;;;;;6.68;6.00;;;;;;;23.81;53.23;99273.81;5073156;28;20490;-57
2022/05/18 07:23:43;;;;;;;8.80;6.43;;;;;;;23.96;53.06;99248.69;5073073;28;20245;-57
2022/05/18 07:26:12;;;;;;;7.40;6.23;;;;;;;23.98;52.85;99266.09;5072923;28;20670;-57
2022/05/18 07:28:40;;;;;;;9.55;6.57;;;;;;;23.95;53.41;99260.13;5073006;28;20587;-58
2022/05/18 07:31:07;;;;;;;11.27;6.80;;;;;;;24.18;53.02;99270.53;5073374;28;20729;-58
2022/05/18 07:33:34;;;;;;;6.93;6.23;;;;;;;24.25;52.97;99274.63;5073168;28;20981;-58
2022/05/18 07:36:01;;;;;;;7.73;7.07;;;;;;;24.10;53.41;99275.25;5073310;28;20215;-58
2022/05/18 07:38:30;;;;;;;7.33;6.67;;;;;;;24.12;53.36;99283.09;5072863;28;20231;-59
2022/05/18 07:40:57;;;;;;;8.70;6.97;;;;;;;24.19;53.54;99274.88;5072703;28;20188;-58
2022/05/18 07:43:26;;;;;;;7.95;7.18;;;;;;;24.24;53.62;99278.16;5072102;28;20765;-58
2022/05/18 07:45:55;;;;;;;7.43;6.70;;;;;;;24.37;52.74;99284.59;5073039;28;20218;-58
2022/05/18 07:48:23;;;;;;;8.27;7.17;;;;;;;24.27;53.32;99287.69;5072553;28;20192;-58
2022/05/18 07:50:50;;;;;;;7.10;6.40;;;;;;;24.19;53.19;99288.00;5072754;28;20198;-58
2022/05/18 07:53:18;;;;;;;7.43;6.73;;;;;;;24.17;53.03;99291.63;5072519;28;20252;-58
2022/05/18 07:55:45;;;;;;;9.67;7.47;;;;;;;24.16;53.40;99306.50;5072439;28;20203;-56
2022/05/18 07:58:15;;;;;;;7.70;7.10;;;;;;;24.11;53.25;99291.88;5072817;28;20200;-57
2022/05/18 08:00:43;;;;;;;7.13;6.43;;;;;;;24.30;53.03;99303.31;5072768;28;20187;-57
2022/05/18 08:03:12;;;;;;;6.80;6.13;;;;;;;24.36;52.21;99308.31;5072463;28;20215;-58
2022/05/18 08:05:40;;;;;;;6.90;6.30;;;;;;;24.44;52.04;99303.56;5072486;28;20275;-56
2022/05/18 08:08:10;;;;;;;6.70;6.10;;;;;;;24.43;51.56;99321.09;5072336;28;20198;-56
2022/05/18 08:16:08;;;;;;;6.73;6.23;;;;;;;24.50;52.71;99322.53;5072008;28;20230;-57
2022/05/18 08:18:35;;;;;;;7.10;6.40;;;;;;;24.55;53.05;99302.19;5071968;28;20195;-57
2022/05/18 08:21:02;;;;;;;8.53;6.63;;;;;;;24.81;51.84;99308.09;5072283;28;20192;-57
2022/05/18 08:23:28;;;;;;;6.83;6.23;;;;;;;24.95;52.24;99313.59;5072077;28;20565;-59
2022/05/18 08:25:56;;;;;;;7.17;6.47;;;;;;;25.05;51.85;99321.00;5072131;28;20203;-57
2022/05/18 08:28:23;;;;;;;7.47;6.73;;;;;;;25.01;51.97;99331.72;5071051;28;20195;-57
2022/05/18 08:30:50;;;;;;;10.10;6.37;;;;;;;24.90;51.92;99341.88;5071917;28;20370;-58
2022/05/18 08:33:18;;;;;;;7.27;6.20;;;;;;;24.77;52.05;99324.91;5071865;28;20183;-57
2022/05/18 08:35:46;;;;;;;7.60;6.93;;;;;;;24.70;53.18;99332.19;5070752;28;20445;-57
2022/05/18 08:38:14;;;;;;;7.50;6.80;;;;;;;24.58;53.87;99344.06;5071637;28;20655;-58
2022/05/18 08:40:46;;;;;;;8.30;7.60;;;;;;;24.71;54.45;99344.41;5071383;28;20195;-58
2022/05/18 08:43:20;;;;;;;11.10;7.80;;;;;;;24.47;54.55;99348.09;5071777;28;20575;-58
2022/05/18 08:45:48;;;;;;;8.23;7.43;;;;;;;24.23;56.42;99359.66;5071496;28;20198;-58
2022/05/18 08:48:26;;;;;;;8.47;7.77;;;;;;;24.13;57.51;99356.53;5071569;28;20199;-58
2022/05/18 08:50:56;;;;;;;8.97;8.17;;;;;;;24.15;57.59;99351.19;5071761;28;20648;-58
2022/05/18 08:53:38;;;;;;;8.77;7.87;;;;;;;24.14;58.13;99354.75;5071444;28;20645;-56
2022/05/18 08:56:12;;;;;;;9.82;8.65;;;;;;;24.02;59.87;99356.06;5070948;28;20591;-57
2022/05/18 08:58:42;;;;;;;8.87;8.17;;;;;;;23.71;60.66;99355.56;5071233;28;20566;-57
2022/05/18 09:01:16;;;;;;;11.23;9.27;;;;;;;23.67;62.79;99356.63;5071333;28;20215;-57
2022/05/18 09:03:47;;;;;;;9.20;8.30;;;;;;;23.39;63.39;99351.59;5071037;28;20219;-57
2022/05/18 09:06:28;;;;;;;10.83;8.77;;;;;;;23.04;65.30;99359.88;5071148;28;20293;-57
2022/05/18 09:11:51;;;;;;;10.90;9.80;;;;;;;22.72;68.94;99354.00;5045186;28;20244;-58
2022/05/18 09:14:20;;;;;;;11.00;9.90;;;;;;;22.72;69.83;99368.84;5071149;28;20582;-57
2022/05/18 09:16:58;;;;;;;11.83;10.30;;;;;;;22.64;71.27;99361.28;5071004;28;20191;-56
2022/05/18 09:19:39;;;;;;;11.57;10.52;;;;;;;22.44;71.11;99358.47;5069775;28;20433;-58
2022/05/18 09:22:15;;;;;;;11.87;10.70;;;;;;;22.31;71.52;99358.00;5070682;28;20187;-57
2022/05/18 09:24:55;;;;;;;12.30;11.10;;;;;;;22.25;73.12;99336.41;5070697;28;20204;-58
2022/05/18 09:27:38;;;;;;;17.30;10.93;;;;;;;22.21;73.27;99333.06;5070297;28;20218;-57
2022/05/18 09:30:15;;;;;;;10.40;9.50;;;;;;;22.30;72.99;99358.06;5070494;28;20245;-57
2022/05/18 09:32:58;;;;;;;12.77;11.57;;;;;;;22.31;74.47;99358.00;5069768;28;20434;-58
2022/05/18 09:35:52;;;;;;;11.30;10.00;;;;;;;22.36;73.58;99368.31;5070505;28;20195;-57
2022/05/18 09:38:25;;;;;;;9.27;8.43;;;;;;;22.25;72.73;99365.19;5070308;28;20256;-57
2022/05/18 09:40:51;;;;;;;10.20;9.30;;;;;;;22.25;73.01;99367.81;5069339;28;20509;-57
2022/05/18 09:43:26;;;;;;;8.03;6.77;;;;;;;22.20;72.49;99365.38;5070377;28;20519;-57
2022/05/18 09:45:55;;;;;;;7.97;6.70;;;;;;;22.04;72.12;99358.06;5070469;28;20208;-57
2022/05/18 09:48:29;;;;;;;5.93;5.33;;;;;;;22.00;71.83;99359.06;5070215;28;20198;-57
2022/05/18 09:50:59;;;;;;;6.40;5.90;;;;;;;21.97;71.91;99359.19;5070539;28;20530;-57
2022/05/18 09:53:26;;;;;;;5.87;5.37;;;;;;;21.78;72.03;99354.47;5070150;28;20191;-56
2022/05/18 09:55:53;;;;;;;6.43;5.37;;;;;;;21.69;72.79;99354.78;5070121;28;20616;-57
2022/05/18 09:58:25;;;;;;;5.17;4.77;;;;;;;21.65;72.17;99355.75;5070258;28;20191;-56
2022/05/18 10:07:27;;;;;;;5.60;5.10;;;;;;;21.62;70.52;99357.59;5070139;28;20444;-57
2022/05/18 10:09:43;;;;;;;5.87;5.27;;;;;;;21.93;69.56;99341.84;5069390;28;20233;-56
2022/05/18 10:12:16;;;;;;;5.47;4.90;;;;;;;21.94;69.04;99349.66;5069492;28;20198;-57
2022/05/18 10:14:48;;;;;;;6.55;5.30;;;;;;;22.00;68.27;99338.97;5069437;28;20433;-57
2022/05/18 10:17:19;;;;;;;6.07;5.47;;;;;;;22.25;68.88;99346.88;5069403;28;20295;-57
2022/05/18 10:19:49;;;;;;;5.43;4.90;;;;;;;22.37;66.73;99337.75;5069779;28;20192;-57
2022/05/18 10:22:22;;;;;;;5.87;5.37;;;;;;;22.50;64.61;99344.28;5069891;28;20585;-57
2022/05/18 10:24:55;;;;;;;5.60;5.07;;;;;;;22.66;64.56;99343.72;5069648;28;20612;-57
2022/05/18 10:27:29;;;;;;;6.33;4.67;;;;;;;22.78;62.82;99348.56;5069518;28;20199;-57
2022/05/18 10:30:08;;;;;;;4.63;4.23;;;;;;;22.98;61.89;99344.34;5069280;28;20191;-57
2022/05/18 10:32:36;;;;;;;5.30;4.80;;;;;;;23.07;60.46;99354.53;5069711;28;20203;-57
2022/05/18 10:35:05;;;;;;;4.40;4.00;;;;;;;23.10;59.53;99355.25;5069656;28;20216;-57
2022/05/18 10:37:35;;;;;;;5.43;4.90;;;;;;;23.25;59.06;99359.06;5068869;28;20446;-57
2022/05/18 10:40:05;;;;;;;5.20;4.77;;;;;;;23.53;59.32;99354.53;5069205;28;20229;-57
2022/05/18 10:42:43;;;;;;;4.97;4.47;;;;;;;23.68;57.05;99363.59;5069458;28;20298;-58
2022/05/18 10:45:30;;;;;;;5.18;4.57;;;;;;;23.71;56.84;99364.31;5068466;28;20429;-57
2022/05/18 10:48:03;;;;;;;4.80;4.40;;;;;;;23.77;56.44;99363.22;5069688;28;20606;-57
2022/05/18 10:50:34;;;;;;;4.47;4.07;;;;;;;23.59;55.93;99346.44;5069302;28;20567;-58
2022/05/18 10:53:21;;;;;;;5.40;4.93;;;;;;;23.80;55.89;99357.84;5069672;28;20203;-57
2022/05/18 10:56:00;;;;;;;4.30;3.90;;;;;;;23.77;56.19;99364.06;5069322;28;20187;-57
2022/05/18 10:58:30;;;;;;;4.97;4.47;;;;;;;23.81;55.89;99356.94;5068759;28;20441;-58
2022/05/18 11:01:00;;;;;;;4.93;4.53;;;;;;;23.85;55.63;99355.88;5069052;28;20202;-58
2022/05/18 11:03:35;;;;;;;4.93;4.40;;;;;;;24.02;54.78;99351.69;5069139;28;20305;-58
2022/05/18 11:06:08;;;;;;;7.90;4.15;;;;;;;23.99;53.85;99364.06;5068952;28;20817;-58
2022/05/18 11:08:36;;;;;;;4.43;3.97;;;;;;;23.83;53.53;99349.84;5069307;28;20658;-57
2022/05/18 11:11:15;;;;;;;4.33;3.80;;;;;;;23.94;54.19;99361.63;5069219;28;20184;-57
2022/05/18 11:13:47;;;;;;;5.40;4.17;;;;;;;24.02;54.68;99362.19;5068810;28;20203;-57
2022/05/18 11:16:25;;;;;;;4.47;4.17;;;;;;;24.07;53.95;99364.59;5068978;28;20218;-58
2022/05/18 11:18:59;;;;;;;4.37;3.97;;;;;;;24.25;53.77;99352.53;5069013;28;20206;-57
2022/05/18 11:21:36;;;;;;;5.18;4.75;;;;;;;24.35;53.85;99351.22;5068228;28;20499;-56
2022/05/18 11:24:12;;;;;;;4.60;4.30;;;;;;;24.57;53.62;99359.91;5068713;28;20732;-57
2022/05/18 11:26:51;;;;;;;4.53;4.13;;;;;;;24.70;53.39;99363.72;5069023;28;20195;-57
2022/05/18 11:29:40;;;;;;;5.43;4.93;;;;;;;24.77;53.32;99352.03;5067630;28;20863;-58
2022/05/18 11:32:18;;;;;;;8.20;4.57;;;;;;;24.89;52.31;99358.53;5068910;28;20685;-58
2022/05/18 11:34:55;;;;;;;5.23;4.43;;;;;;;25.01;51.62;99358.00;5068707;28;20666;-57
2022/05/18 11:37:35;;;;;;;5.03;4.63;;;;;;;25.10;51.88;99361.09;5068389;28;20187;-57
2022/05/18 11:40:10;;;;;;;5.17;4.43;;;;;;;24.67;52.34;99365.66;5068325;28;20231;-57
2022/05/18 11:42:52;;;;;;;4.72;4.30;;;;;;;24.79;53.18;99363.38;5067866;28;20438;-58
2022/05/18 11:45:39;;;;;;;4.90;4.33;;;;;;;25.08;52.37;99364.69;5068890;28;20626;-57
2022/05/18 11:48:20;;;;;;;4.87;4.37;;;;;;;25.20;52.51;99372.91;5068548;28;20192;-58
2022/05/18 11:51:00;;;;;;;5.65;5.20;;;;;;;25.07;51.66;99366.50;5067243;28;20523;-57
2022/05/18 11:53:40;;;;;;;5.30;4.90;;;;;;;25.31;51.97;99374.19;5068566;28;20203;-58
2022/05/18 11:56:33;;;;;;;6.10;5.60;;;;;;;25.10;51.88;99382.13;5068349;28;20194;-58
2022/05/18 11:59:30;;;;;;;7.33;5.70;;;;;;;25.39;51.67;99387.84;5068465;28;20203;-58
2022/05/18 12:02:13;;;;;;;6.23;5.73;;;;;;;25.13;51.98;99403.00;5067233;28;20313;-58
2022/05/18 12:05:07;;;;;;;5.70;5.20;;;;;;;25.11;52.71;99404.88;5051001;28;20478;-57
2022/05/18 12:07:49;;;;;;;5.50;5.10;;;;;;;24.92;51.75;99413.63;5052306;28;20208;-57